sensor_id;sensor_type;location;lat;lon;timestamp;pressure;altitude;pressure_sealevel;temperature;humidity
71642;BME280;60657;50.122;14.468;2024-02-28T00:00:48;98174.29440607241;;;7.458609903105213;82.3916990920882
71642;BME280;60657;50.122;14.468;2024-02-28T00:03:49;98180.09376305119;;;7.471961547264819;82.31158922713054
71642;BME280;60657;50.122;14.468;2024-02-28T00:06:51;98179.98272425772;;;7.362478065156026;82.76935988403143
71642;BME280;60657;50.122;14.468;2024-02-28T00:09:52;98185.01446668363;;;7.418554970626381;82.58052948805981
71642;BME280;60657;50.122;14.468;2024-02-28T00:12:53;98185.84473880731;;;7.418554970626381;82.49279011215381
71642;BME280;60657;50.122;14.468;2024-02-28T00:15:54;98183.390592398;;;7.4345769436179125;82.39742122529945
71642;BME280;60657;50.122;14.468;2024-02-28T00:18:56;98179.21501684198;;;7.418554970626381;82.5385671778439
71642;BME280;60657;50.122;14.468;2024-02-28T00:21:57;98189.14112639849;;;7.389181353475244;82.54428931105517
71642;BME280;60657;50.122;14.468;2024-02-28T00:24:58;98184.98964155318;;;7.370489051651788;82.70450904097048
71642;BME280;60657;50.122;14.468;2024-02-28T00:27:59;98186.65022383012;;;7.40253299763485;82.68925001907378
71642;BME280;60657;50.122;14.468;2024-02-28T00:31:03;98181.63055309122;;;7.301060502021819;82.68734264133668
71642;BME280;60657;50.122;14.468;2024-02-28T00:34:04;98180.76150522626;;;7.311741817349507;83.12031738765545
71642;BME280;60657;50.122;14.468;2024-02-28T00:37:05;98178.33486104109;;;7.3170824750133505;82.87426565957122
71642;BME280;60657;50.122;14.468;2024-02-28T00:40:08;98180.81300718237;;;7.314412146181432;83.05165178912031
71642;BME280;60657;50.122;14.468;2024-02-28T00:43:10;98177.46624772558;;;7.314412146181432;83.01731898985275
71642;BME280;60657;50.122;14.468;2024-02-28T00:46:11;98179.17772604675;;;7.343785763332569;82.847562371252
71642;BME280;60657;50.122;14.468;2024-02-28T00:49:12;98175.03903145736;;;7.346456092164495;82.86282139314869
71642;BME280;60657;50.122;14.468;2024-02-28T00:52:14;98178.3093950706;;;7.3090714885175885;82.87235828183414
71642;BME280;60657;50.122;14.468;2024-02-28T00:55:15;98174.96242901703;;;7.218280308232245;83.18135347524223
71642;BME280;60657;50.122;14.468;2024-02-28T00:58:16;98172.51035298592;;;7.269016556038757;82.96391241321432
71642;BME280;60657;50.122;14.468;2024-02-28T01:01:18;98168.3972994156;;;7.287708857862214;82.97154192416266
71642;BME280;60657;50.122;14.468;2024-02-28T01:04:19;98171.7055432396;;;7.3170824750133505;82.81513694972152
71642;BME280;60657;50.122;14.468;2024-02-28T01:07:22;98181.57874908773;;;7.298390173189901;83.00396734569314
71642;BME280;60657;50.122;14.468;2024-02-28T01:10:23;98174.86923680801;;;7.188906691081101;83.11650263218128
71642;BME280;60657;50.122;14.468;2024-02-28T01:13:25;98178.19063907699;;;7.183566033417257;83.3358510719463
71642;BME280;60657;50.122;14.468;2024-02-28T01:16:26;98179.02099938347;;;7.21560997940032;83.06691081101701
71642;BME280;60657;50.122;14.468;2024-02-28T01:19:27;98176.44687799773;;;7.08743419546807;83.52849622339208
71642;BME280;60657;50.122;14.468;2024-02-28T01:22:28;98184.0032430195;;;7.2503242542153075;83.24429694056612
71642;BME280;60657;50.122;14.468;2024-02-28T01:25:35;98190.59199878306;;;7.220950637064163;83.10124361028458
71642;BME280;60657;50.122;14.468;2024-02-28T01:28:37;98187.2702266749;;;7.1995880064087885;82.9505607690547
71642;BME280;60657;50.122;14.468;2024-02-28T01:31:38;98180.73525007804;;;7.263675898374913;82.93339436942092
71642;BME280;60657;50.122;14.468;2024-02-28T01:34:39;98187.32481666666;;;7.236972610055695;82.76745250629435
71642;BME280;60657;50.122;14.468;2024-02-28T01:37:42;98194.83841563443;;;7.295719844357976;82.69497215228503
71642;BME280;60657;50.122;14.468;2024-02-28T01:40:44;98198.97736745398;;;7.335774776836807;82.35545891508355
71642;BME280;60657;50.122;14.468;2024-02-28T01:43:45;98194.02112419272;;;7.319752803845276;82.42984664682994
71642;BME280;60657;50.122;14.468;2024-02-28T01:46:47;98201.34679808664;;;7.226291294728007;82.86091401541161
71642;BME280;60657;50.122;14.468;2024-02-28T01:49:48;98201.37447570673;;;7.277027542534526;82.87235828183414
71642;BME280;60657;50.122;14.468;2024-02-28T01:52:50;98198.1469307485;;;7.3090714885175885;82.60151064316777
71642;BME280;60657;50.122;14.468;2024-02-28T01:55:54;98205.51331991755;;;7.271686884870682;82.70260166323338
71642;BME280;60657;50.122;14.468;2024-02-28T01:59:04;98209.65226259633;;;7.183566033417257;82.65682459754329
71642;BME280;60657;50.122;14.468;2024-02-28T02:02:06;98207.17440358162;;;7.293049515526057;82.45654993514916
71642;BME280;60657;50.122;14.468;2024-02-28T02:05:09;98211.28559288906;;;7.194247348744945;82.52140077821012
71642;BME280;60657;50.122;14.468;2024-02-28T02:08:13;98202.14933043788;;;7.218280308232245;82.56336308842603
71642;BME280;60657;50.122;14.468;2024-02-28T02:11:15;98199.76787884417;;;7.269016556038757;82.32875562676432
71642;BME280;60657;50.122;14.468;2024-02-28T02:14:18;98202.27266888315;;;7.327763790341038;82.07888914320593
71642;BME280;60657;50.122;14.468;2024-02-28T02:17:19;98202.27266888315;;;7.354467078660257;82.22194247348745
71642;BME280;60657;50.122;14.468;2024-02-28T02:20:25;98197.28991136311;;;7.306401159685663;81.93965056839856
71642;BME280;60657;50.122;14.468;2024-02-28T02:23:31;98199.01656585294;;;7.394522011139088;81.76798657206074
71642;BME280;60657;50.122;14.468;2024-02-28T02:26:32;98199.02946387512;;;7.354467078660257;81.59822995345998
71642;BME280;60657;50.122;14.468;2024-02-28T02:29:33;98211.42127846798;;;7.370489051651788;81.6974135957885
71642;BME280;60657;50.122;14.468;2024-02-28T02:32:37;98210.44096491678;;;7.231631952391851;81.92820630197605
71642;BME280;60657;50.122;14.468;2024-02-28T02:35:38;98214.57990972295;;;7.279697871366444;81.81567101548791
71642;BME280;60657;50.122;14.468;2024-02-28T02:38:39;98218.64708273986;;;7.162203402761882;82.15136949721523
71642;BME280;60657;50.122;14.468;2024-02-28T02:41:41;98203.00785983492;;;7.28236820019837;81.99877927824826
71642;BME280;60657;50.122;14.468;2024-02-28T02:44:42;98210.46895928592;;;7.234302281223776;81.71839475089646
71642;BME280;60657;50.122;14.468;2024-02-28T02:47:44;98217.91648079119;;;7.252994583047226;81.5810635538262
71642;BME280;60657;50.122;14.468;2024-02-28T02:50:45;98216.26920738026;;;7.2289616235599325;81.56961928740368
71642;BME280;60657;50.122;14.468;2024-02-28T02:53:46;98222.87225826088;;;7.261005569542995;81.51239795529106
71642;BME280;60657;50.122;14.468;2024-02-28T02:56:50;98214.59399035171;;;7.218280308232245;81.57343404287785
71642;BME280;60657;50.122;14.468;2024-02-28T02:59:51;98215.41053500434;;;7.231631952391851;81.6974135957885
71642;BME280;60657;50.122;14.468;2024-02-28T03:02:52;98217.95811642752;;;7.277027542534526;81.39223315785458
71642;BME280;60657;50.122;14.468;2024-02-28T03:05:54;98216.35132044589;;;7.322423132677194;81.2720683604181
71642;BME280;60657;50.122;14.468;2024-02-28T03:08:55;98229.5456878104;;;7.293049515526057;81.24727244983596
71642;BME280;60657;50.122;14.468;2024-02-28T03:11:56;98231.96741086974;;;7.274357213702601;81.5219348439765
71642;BME280;60657;50.122;14.468;2024-02-28T03:14:58;98236.99422408763;;;7.333104448004882;81.58678568703746
71642;BME280;60657;50.122;14.468;2024-02-28T03:17:59;98235.36057733274;;;7.365148393987944;81.36743724727245
71642;BME280;60657;50.122;14.468;2024-02-28T03:21:08;98248.58297245452;;;7.322423132677194;81.16334782940413
71642;BME280;60657;50.122;14.468;2024-02-28T03:24:09;98250.23047977747;;;7.394522011139088;81.05462729839017
71642;BME280;60657;50.122;14.468;2024-02-28T03:27:10;98258.51065674245;;;7.3598077363241;81.17669947356374
71642;BME280;60657;50.122;14.468;2024-02-28T03:30:12;98253.58196067078;;;7.365148393987944;81.02410925459678
71642;BME280;60657;50.122;14.468;2024-02-28T03:33:15;98253.45278856927;;;7.290379186694132;81.25108720531014
71642;BME280;60657;50.122;14.468;2024-02-28T03:36:17;98264.99670861746;;;7.269016556038757;81.5505455100328
71642;BME280;60657;50.122;14.468;2024-02-28T03:39:18;98260.9457347145;;;7.327763790341038;81.29304951552605
71642;BME280;60657;50.122;14.468;2024-02-28T03:42:19;98265.8874803802;;;7.346456092164495;81.15953307392996
71642;BME280;60657;50.122;14.468;2024-02-28T03:45:21;98265.81257570849;;;7.2503242542153075;81.33310444800489
71642;BME280;60657;50.122;14.468;2024-02-28T03:48:23;98259.29841739248;;;7.354467078660257;81.35408560311284
71642;BME280;60657;50.122;14.468;2024-02-28T03:51:25;98273.3517571787;;;7.351796749828338;81.0374608987564
71642;BME280;60657;50.122;14.468;2024-02-28T03:54:26;98273.24625092465;;;7.2289616235599325;81.29495689326315
71642;BME280;60657;50.122;14.468;2024-02-28T03:57:27;98279.81753091139;;;7.234302281223776;81.64782177462425
71642;BME280;60657;50.122;14.468;2024-02-28T04:00:29;98280.00010151646;;;7.439917601281756;81.21484702830548
71642;BME280;60657;50.122;14.468;2024-02-28T04:03:30;98279.09440153632;;;7.3678187228198695;81.33691920347906
71642;BME280;60657;50.122;14.468;2024-02-28T04:06:31;98275.07219222675;;;7.429236285954069;81.06988632028687
71642;BME280;60657;50.122;14.468;2024-02-28T04:09:33;98280.08684846376;;;7.51201647974365;80.83909361409934
71642;BME280;60657;50.122;14.468;2024-02-28T04:12:34;98282.57988816917;;;7.493324177920194;80.67696650644693
71642;BME280;60657;50.122;14.468;2024-02-28T04:15:35;98288.31088201974;;;7.450598916609444;80.58541237506675
71642;BME280;60657;50.122;14.468;2024-02-28T04:18:37;98292.30092977478;;;7.306401159685663;81.28923476005188
71642;BME280;60657;50.122;14.468;2024-02-28T04:21:38;98293.19346259416;;;7.349126420996413;81.16334782940413
71642;BME280;60657;50.122;14.468;2024-02-28T04:24:39;98293.20858254028;;;7.383840695811401;81.11566338597696
71642;BME280;60657;50.122;14.468;2024-02-28T04:27:41;98303.09156013622;;;7.327763790341038;81.42465857938507
71642;BME280;60657;50.122;14.468;2024-02-28T04:30:42;98299.67191574383;;;7.252994583047226;81.64782177462425
71642;BME280;60657;50.122;14.468;2024-02-28T04:33:43;98304.54599131386;;;7.21560997940032;81.77561608300908
71642;BME280;60657;50.122;14.468;2024-02-28T04:36:45;98313.70791728492;;;7.236972610055695;81.67261768520638
71642;BME280;60657;50.122;14.468;2024-02-28T04:39:46;98311.96205826037;;;7.204928664072632;81.85381857022965
71642;BME280;60657;50.122;14.468;2024-02-28T04:42:52;98302.7651630203;;;7.063401235980777;82.09605554283971
71642;BME280;60657;50.122;14.468;2024-02-28T04:45:55;98306.05653499362;;;7.0527199206530895;82.19523918516823
71642;BME280;60657;50.122;14.468;2024-02-28T04:48:56;98311.87693785242;;;7.098115510795758;82.10368505378806
71642;BME280;60657;50.122;14.468;2024-02-28T04:51:58;98313.53994522431;;;7.084763866636152;81.95300221255818
71642;BME280;60657;50.122;14.468;2024-02-28T04:54:59;98314.33687000324;;;7.020675974670027;82.08461127641718
71642;BME280;60657;50.122;14.468;2024-02-28T04:58:07;98315.13349695274;;;7.00999465934234;82.09414816510262
71642;BME280;60657;50.122;14.468;2024-02-28T05:01:13;98318.42455425358;;;7.028686961165789;82.21240558480201
71642;BME280;60657;50.122;14.468;2024-02-28T05:04:14;98317.6281625117;;;7.100785839627683;82.03692683299
71642;BME280;60657;50.122;14.468;2024-02-28T05:07:15;98327.572191441;;;7.076752880140383;81.87289234760051
71642;BME280;60657;50.122;14.468;2024-02-28T05:10:19;98325.19848990782;;;7.1702143892576515;81.67452506294346
71642;BME280;60657;50.122;14.468;2024-02-28T05:13:23;98324.38391877839;;;7.178225375753414;81.6840619516289
71642;BME280;60657;50.122;14.468;2024-02-28T05:16:24;98325.2323502076;;;7.204928664072632;81.54482337682154
71642;BME280;60657;50.122;14.468;2024-02-28T05:19:25;98321.85521619784;;;7.135500114442664;81.60776684214542
71642;BME280;60657;50.122;14.468;2024-02-28T05:22:32;98324.31549253744;;;7.124818799114976;81.63828488593882
71642;BME280;60657;50.122;14.468;2024-02-28T05:25:35;98333.51422194527;;;7.234302281223776;81.43801022354467
71642;BME280;60657;50.122;14.468;2024-02-28T05:28:37;98331.7825881345;;;7.1408407721065075;81.39223315785458
71642;BME280;60657;50.122;14.468;2024-02-28T05:31:38;98335.10909489474;;;7.188906691081101;81.54291599908446
71642;BME280;60657;50.122;14.468;2024-02-28T05:34:40;98350.78919118244;;;7.178225375753414;81.41130693522545
71642;BME280;60657;50.122;14.468;2024-02-28T05:37:42;98352.38143440323;;;7.114137483787289;81.48187991149767
71642;BME280;60657;50.122;14.468;2024-02-28T05:40:45;98361.34838539944;;;7.012664988174258;81.72030212863355
71642;BME280;60657;50.122;14.468;2024-02-28T05:43:47;98372.84424815729;;;6.993972686350801;81.89768825818265
71642;BME280;60657;50.122;14.468;2024-02-28T05:46:49;98360.55377666545;;;7.058060578316933;81.73556115053024
71642;BME280;60657;50.122;14.468;2024-02-28T05:49:51;98367.13451730943;;;7.028686961165789;81.83283741512169
71642;BME280;60657;50.122;14.468;2024-02-28T05:52:52;98372.95848613238;;;7.063401235980777;81.77752346074617
71642;BME280;60657;50.122;14.468;2024-02-28T05:55:53;98382.0732665226;;;7.068741893644621;81.66117341878386
71642;BME280;60657;50.122;14.468;2024-02-28T05:58:55;98377.13728464428;;;7.132829785610745;81.37315938048371
71642;BME280;60657;50.122;14.468;2024-02-28T06:01:56;98385.43906359955;;;7.1408407721065075;81.21866178377967
71642;BME280;60657;50.122;14.468;2024-02-28T06:04:58;98389.56204679134;;;7.159533073929964;81.34645609216449
71642;BME280;60657;50.122;14.468;2024-02-28T06:07:59;98395.17580083165;;;6.980621042191196;81.59250782024873
71642;BME280;60657;50.122;14.468;2024-02-28T06:11:01;98394.47913021012;;;7.116807812619214;81.42847333485923
71642;BME280;60657;50.122;14.468;2024-02-28T06:14:02;98402.70496204899;;;7.092774853131914;81.42275120164797
71642;BME280;60657;50.122;14.468;2024-02-28T06:17:04;98411.06606193967;;;7.119478141451133;81.06225680933852
71642;BME280;60657;50.122;14.468;2024-02-28T06:20:06;98418.4601739584;;;7.167544060425726;81.20531013962005
71642;BME280;60657;50.122;14.468;2024-02-28T06:23:08;98419.38890850729;;;7.204928664072632;80.84481574731059
71642;BME280;60657;50.122;14.468;2024-02-28T06:26:10;98416.13545975521;;;7.255664911879151;80.6826886396582
71642;BME280;60657;50.122;14.468;2024-02-28T06:29:11;98417.7433511054;;;7.236972610055695;80.60639353017471
71642;BME280;60657;50.122;14.468;2024-02-28T06:32:12;98420.1829274741;;;7.167544060425726;80.86198214694438
71642;BME280;60657;50.122;14.468;2024-02-28T06:35:14;98422.56319699535;;;7.13015945677882;80.59876401922637
71642;BME280;60657;50.122;14.468;2024-02-28T06:38:15;98424.4017788622;;;7.252994583047226;80.58350499732967
71642;BME280;60657;50.122;14.468;2024-02-28T06:41:17;98426.08529898227;;;7.333104448004882;80.65026321812772
71642;BME280;60657;50.122;14.468;2024-02-28T06:44:18;98423.64455659597;;;7.335774776836807;80.36034180209049
71642;BME280;60657;50.122;14.468;2024-02-28T06:47:20;98425.11904052156;;;7.186236362249183;80.51483939879454
71642;BME280;60657;50.122;14.468;2024-02-28T06:50:22;98424.20824951745;;;7.146181429770351;80.99359121080339
71642;BME280;60657;50.122;14.468;2024-02-28T06:53:23;98431.70004335133;;;7.15419241626612;80.98786907759212
71642;BME280;60657;50.122;14.468;2024-02-28T06:56:25;98429.30030295138;;;7.212939650568401;80.74372472724498
71642;BME280;60657;50.122;14.468;2024-02-28T06:59:31;98433.5575244986;;;7.335774776836807;80.44808117799649
71642;BME280;60657;50.122;14.468;2024-02-28T07:02:38;98434.38988839982;;;7.333104448004882;80.21156633859769
71642;BME280;60657;50.122;14.468;2024-02-28T07:05:39;98427.74994351166;;;7.319752803845276;80.1810482948043
71642;BME280;60657;50.122;14.468;2024-02-28T07:08:40;98439.44011588016;;;7.3971923399710064;79.91210803387503
71642;BME280;60657;50.122;14.468;2024-02-28T07:11:42;98438.58917555746;;;7.346456092164495;79.83199816891737
71642;BME280;60657;50.122;14.468;2024-02-28T07:14:43;98438.39876989456;;;7.226291294728007;79.88349736781872
71642;BME280;60657;50.122;14.468;2024-02-28T07:17:45;98443.47052627489;;;7.370489051651788;79.87396047913329
71642;BME280;60657;50.122;14.468;2024-02-28T07:20:46;98437.68162075272;;;7.274357213702601;79.62027924010071
71642;BME280;60657;50.122;14.468;2024-02-28T07:23:52;98438.55176636393;;;7.365148393987944;79.64126039520866
71642;BME280;60657;50.122;14.468;2024-02-28T07:26:54;98446.72349837283;;;7.3090714885175885;79.4905775539788
71642;BME280;60657;50.122;14.468;2024-02-28T07:29:55;98451.0004947842;;;7.365148393987944;79.23117418173496
71642;BME280;60657;50.122;14.468;2024-02-28T07:32:57;98451.88904074897;;;7.4452582589456;79.17776760509652
71642;BME280;60657;50.122;14.468;2024-02-28T07:35:58;98456.9389190879;;;7.520027466239412;79.0328068970779
71642;BME280;60657;50.122;14.468;2024-02-28T07:39:00;98462.89144977;;;7.648203250171662;78.45868619821469
71642;BME280;60657;50.122;14.468;2024-02-28T07:42:01;98464.59129704259;;;7.701609826810099;77.98374914168002
71642;BME280;60657;50.122;14.468;2024-02-28T07:45:03;98465.50975555308;;;7.763027389944305;78.05241474021516
71642;BME280;60657;50.122;14.468;2024-02-28T07:48:13;98477.14619788018;;;7.8004119935912115;77.52216372930495
71642;BME280;60657;50.122;14.468;2024-02-28T07:51:15;98480.47590507206;;;7.819104295414661;77.5145342183566
71642;BME280;60657;50.122;14.468;2024-02-28T07:54:18;98483.65018588808;;;7.704280155642024;77.62706950484474
71642;BME280;60657;50.122;14.468;2024-02-28T07:57:19;98484.51784007004;;;7.752346074616618;77.6785687037461
71642;BME280;60657;50.122;14.468;2024-02-28T08:00:21;98486.21762983003;;;7.8004119935912115;77.52788586251621
71642;BME280;60657;50.122;14.468;2024-02-28T08:03:23;98485.40238661286;;;7.797741664759286;77.69382772564279
71642;BME280;60657;50.122;14.468;2024-02-28T08:06:24;98492.11351487525;;;7.901884489204242;77.34477759975586
71642;BME280;60657;50.122;14.468;2024-02-28T08:09:26;98500.37076763889;;;7.877851529716942;77.29900053406577
71642;BME280;60657;50.122;14.468;2024-02-28T08:12:27;98506.18172668287;;;7.944609750514992;77.1177996490425
71642;BME280;60657;50.122;14.468;2024-02-28T08:15:29;98511.07319772517;;;7.824444953078505;77.59464408331426
71642;BME280;60657;50.122;14.468;2024-02-28T08:18:37;98507.89803068693;;;7.973983367666129;77.2513160906386
71642;BME280;60657;50.122;14.468;2024-02-28T08:21:39;98508.86306850803;;;8.06477454795148;77.00717174029145
71642;BME280;60657;50.122;14.468;2024-02-28T08:24:45;98519.65381658234;;;8.075455863279167;76.77637903410391
71642;BME280;60657;50.122;14.468;2024-02-28T08:27:52;98518.82122764444;;;8.126192111085679;77.02243076218815
71642;BME280;60657;50.122;14.468;2024-02-28T08:30:54;98524.50000098356;;;8.032730601968417;77.13496604867628
71642;BME280;60657;50.122;14.468;2024-02-28T08:33:59;98524.46586715008;;;8.02204928664073;77.36957351033799
71642;BME280;60657;50.122;14.468;2024-02-28T08:37:04;98526.6976535862;;;7.80308232242313;78.0314335851072
71642;BME280;60657;50.122;14.468;2024-02-28T08:40:07;98529.32269544105;;;7.968642710002285;77.85786221103227
71642;BME280;60657;50.122;14.468;2024-02-28T08:43:08;98529.42782078379;;;7.995345998321504;77.26848249027238
71642;BME280;60657;50.122;14.468;2024-02-28T08:46:13;98535.20515557828;;;7.992675669489586;77.2494087129015
71642;BME280;60657;50.122;14.468;2024-02-28T08:49:27;98540.91099460916;;;7.91256580453193;77.61562523842221
71642;BME280;60657;50.122;14.468;2024-02-28T08:52:29;98543.37358148834;;;7.936598764019223;77.84832532234684
71642;BME280;60657;50.122;14.468;2024-02-28T08:55:30;98535.30840396047;;;8.104829480430304;77.30663004501412
71642;BME280;60657;50.122;14.468;2024-02-28T08:58:32;98543.49844989368;;;8.051422903791867;77.41153582055391
71642;BME280;60657;50.122;14.468;2024-02-28T09:01:37;98549.31102403364;;;8.051422903791867;77.37148088807507
71642;BME280;60657;50.122;14.468;2024-02-28T09:04:49;98551.89637814001;;;8.12352178225376;77.19409475852598
71642;BME280;60657;50.122;14.468;2024-02-28T09:07:55;98553.61304080096;;;8.08346684977493;77.15403982604715
71642;BME280;60657;50.122;14.468;2024-02-28T09:10:56;98555.84973908069;;;7.920576791027692;77.57747768368047
71642;BME280;60657;50.122;14.468;2024-02-28T09:14:02;98553.38686319492;;;7.923247119859617;77.37338826581217
71642;BME280;60657;50.122;14.468;2024-02-28T09:17:04;98568.19856820302;;;7.904554818036161;77.72625314717327
71642;BME280;60657;50.122;14.468;2024-02-28T09:20:06;98561.68072626252;;;7.995345998321504;77.57175555046922
71642;BME280;60657;50.122;14.468;2024-02-28T09:23:08;98566.53235324021;;;7.893873502708473;77.76058594644083
71642;BME280;60657;50.122;14.468;2024-02-28T09:26:15;98560.10388661423;;;8.032730601968417;77.49736781872282
71642;BME280;60657;50.122;14.468;2024-02-28T09:29:19;98557.70940579881;;;8.152895399404898;77.04722667277028
71642;BME280;60657;50.122;14.468;2024-02-28T09:32:21;98554.39498211489;;;8.054093232623792;77.14068818188754
71642;BME280;60657;50.122;14.468;2024-02-28T09:35:23;98560.12146903508;;;8.054093232623792;77.02624551766232
71642;BME280;60657;50.122;14.468;2024-02-28T09:38:24;98557.77730977042;;;8.20897230487526;76.78210116731518
71642;BME280;60657;50.122;14.468;2024-02-28T09:41:26;98557.77730977042;;;8.171587701228354;76.28236820019836
71642;BME280;60657;50.122;14.468;2024-02-28T09:44:27;98560.32588263425;;;8.257038223849854;76.08781567101549
71642;BME280;60657;50.122;14.468;2024-02-28T09:47:30;98560.30931195444;;;8.254367895017928;75.94285496299688
71642;BME280;60657;50.122;14.468;2024-02-28T09:50:32;98568.58812396643;;;8.238345922026397;75.89707789730679
71642;BME280;60657;50.122;14.468;2024-02-28T09:53:34;98561.92486895171;;;8.15022507057298;76.20035095750363
71642;BME280;60657;50.122;14.468;2024-02-28T09:56:37;98568.52033020128;;;8.104829480430304;75.97146562905317
71642;BME280;60657;50.122;14.468;2024-02-28T09:59:39;98568.48592736563;;;8.09948882276646;76.25947966735332
71642;BME280;60657;50.122;14.468;2024-02-28T10:02:42;98580.1821041084;;;8.22766460669871;75.94476234073396
71642;BME280;60657;50.122;14.468;2024-02-28T10:05:47;98585.28038985535;;;8.347829404135197;75.6433966582742
71642;BME280;60657;50.122;14.468;2024-02-28T10:08:48;98582.8946437391;;;8.419928282597084;75.6586556801709
71642;BME280;60657;50.122;14.468;2024-02-28T10:11:50;98582.73168684852;;;8.326466773479822;75.76356145571069
71642;BME280;60657;50.122;14.468;2024-02-28T10:14:52;98578.61665440092;;;8.35584039063096;75.8493934538796
71642;BME280;60657;50.122;14.468;2024-02-28T10:17:53;98590.39099328086;;;8.518730449378197;75.32867933165484
71642;BME280;60657;50.122;14.468;2024-02-28T10:20:55;98592.9055735781;;;8.513389791714353;75.04829480430304
71642;BME280;60657;50.122;14.468;2024-02-28T10:23:57;98598.7673849446;;;8.620202944991227;74.63820859082932
71642;BME280;60657;50.122;14.468;2024-02-28T10:27:00;98591.40730460135;;;8.673609521629665;74.21858548867017
71642;BME280;60657;50.122;14.468;2024-02-28T10:30:03;98582.33393251839;;;8.745708400091551;74.1136797131304
71642;BME280;60657;50.122;14.468;2024-02-28T10:33:09;98590.67586452837;;;8.769741359578852;74.1556420233463
71642;BME280;60657;50.122;14.468;2024-02-28T10:36:11;98597.25198479366;;;8.748378728923477;74.41504539559014
71642;BME280;60657;50.122;14.468;2024-02-28T10:39:13;98591.6595263777;;;8.972686350804914;73.69024185549706
71642;BME280;60657;50.122;14.468;2024-02-28T10:42:15;98590.91758331342;;;9.042114900434882;73.18860151064317
71642;BME280;60657;50.122;14.468;2024-02-28T10:48:32;98599.26900512936;;;9.16227969787137;72.19485770962082
71642;BME280;60657;50.122;14.468;2024-02-28T10:51:34;98602.64843999667;;;9.188982986190588;71.71610589761197
71642;BME280;60657;50.122;14.468;2024-02-28T10:54:37;98604.24005753233;;;9.159609369039444;71.90302891584649
71642;BME280;60657;50.122;14.468;2024-02-28T10:57:41;98609.02579507155;;;8.911268787670707;72.08613717860685
71642;BME280;60657;50.122;14.468;2024-02-28T11:00:49;98610.67764329544;;;8.921950102998395;72.2272831311513
71642;BME280;60657;50.122;14.468;2024-02-28T11:03:51;98606.5133710085;;;8.90058747234302;72.34935530632487
71642;BME280;60657;50.122;14.468;2024-02-28T11:06:55;98627.12032581719;;;8.78042267490654;73.03982604715038